createdAt,value
2017-09-18T00:00:39.866Z,18.12
2017-09-18T00:03:07.404Z,19.23
2017-09-18T00:05:34.925Z,18.48
2017-09-18T00:08:02.457Z,19.00
2017-09-18T00:10:30.008Z,18.33
2017-09-18T00:12:57.529Z,18.58
2017-09-18T00:15:25.080Z,19.58
2017-09-18T00:17:53.400Z,18.60
2017-09-18T00:20:20.922Z,20.65
2017-09-18T00:22:49.201Z,19.00
2017-09-18T00:25:17.514Z,19.80
2017-09-18T00:27:45.044Z,19.40
2017-09-18T00:30:12.574Z,21.27
2017-09-18T00:32:40.105Z,20.73
2017-09-18T00:35:07.649Z,19.58
2017-09-18T00:37:35.174Z,20.48
2017-09-18T00:40:02.977Z,21.92
2017-09-18T00:42:30.510Z,20.65
2017-09-18T00:44:58.039Z,21.85
2017-09-18T00:47:25.576Z,21.35
2017-09-18T00:49:53.123Z,21.00
2017-09-18T00:52:20.632Z,23.83
2017-09-18T00:54:48.173Z,22.90
2017-09-18T00:57:15.695Z,22.55
2017-09-18T00:59:43.215Z,22.65
2017-09-18T01:02:10.741Z,20.83
2017-09-18T01:04:38.245Z,23.87
2017-09-18T01:07:05.757Z,23.20
2017-09-18T01:09:33.332Z,24.35
2017-09-18T01:12:01.641Z,24.67
2017-09-18T01:14:29.324Z,23.00
2017-09-18T01:16:56.883Z,25.33
2017-09-18T01:19:24.415Z,24.25
2017-09-18T01:21:51.954Z,24.48
2017-09-18T01:24:19.512Z,26.05
2017-09-18T01:26:47.812Z,24.75
2017-09-18T01:29:15.349Z,25.95
2017-09-18T01:31:43.655Z,23.95
2017-09-18T01:34:11.169Z,24.42
2017-09-18T01:36:38.691Z,25.42
2017-09-18T01:39:06.223Z,24.92
2017-09-18T01:41:33.738Z,26.12
2017-09-18T01:44:01.260Z,25.40
2017-09-18T01:46:28.809Z,23.67
2017-09-18T01:48:56.350Z,25.83
2017-09-18T01:51:23.872Z,25.98
2017-09-18T01:53:51.426Z,25.73
2017-09-18T01:56:18.937Z,25.80
2017-09-18T01:58:46.452Z,24.95
2017-09-18T02:01:14.032Z,22.40
2017-09-18T02:03:42.335Z,24.48
2017-09-18T02:06:09.863Z,25.80
2017-09-18T02:08:38.169Z,24.05
2017-09-18T02:11:05.716Z,25.92
2017-09-18T02:13:33.233Z,26.65
2017-09-18T02:16:00.768Z,25.00
2017-09-18T02:18:28.304Z,23.33
2017-09-18T02:20:55.812Z,23.35
2017-09-18T02:23:23.344Z,23.23
2017-09-18T02:25:50.860Z,21.25
2017-09-18T02:28:19.142Z,22.45
2017-09-18T02:30:47.442Z,23.80
2017-09-18T02:33:14.966Z,22.30
2017-09-18T02:35:43.263Z,22.95
2017-09-18T02:38:10.814Z,23.05
2017-09-18T02:40:39.108Z,23.05
2017-09-18T02:43:06.632Z,21.27
2017-09-18T02:45:34.160Z,21.70
2017-09-18T02:48:01.692Z,23.80
2017-09-18T02:50:29.221Z,21.62
2017-09-18T02:52:57.513Z,22.42
2017-09-18T02:55:25.050Z,21.95
2017-09-18T02:57:53.347Z,21.35
2017-09-18T03:00:21.146Z,23.67
2017-09-18T03:02:48.678Z,21.42
2017-09-18T03:05:16.224Z,21.40
2017-09-18T03:07:44.544Z,22.35
2017-09-18T03:10:12.068Z,22.42
2017-09-18T03:12:39.589Z,20.52
2017-09-18T03:15:07.151Z,22.60
2017-09-18T03:17:34.675Z,22.33
2017-09-18T03:20:02.203Z,21.83
2017-09-18T03:22:29.756Z,19.87
2017-09-18T03:24:58.044Z,22.45
2017-09-18T03:27:25.553Z,22.98
2017-09-18T03:29:53.113Z,22.65
2017-09-18T03:32:20.647Z,21.25
2017-09-18T03:34:48.175Z,21.92
2017-09-18T03:37:16.480Z,21.73
2017-09-18T03:39:44.016Z,21.45
2017-09-18T03:42:11.540Z,21.65
2017-09-18T03:44:39.074Z,21.42
2017-09-18T03:47:06.589Z,21.08
2017-09-18T03:49:34.876Z,19.98
2017-09-18T03:52:02.401Z,19.83
2017-09-18T03:54:30.675Z,22.17
2017-09-18T03:56:58.203Z,21.25
2017-09-18T03:59:25.749Z,18.48
2017-09-18T04:01:53.284Z,19.80
2017-09-18T04:04:20.808Z,20.27
2017-09-18T04:06:48.373Z,19.75
2017-09-18T04:09:15.883Z,20.80
2017-09-18T04:11:43.426Z,19.45
2017-09-18T04:14:10.984Z,18.48
2017-09-18T04:16:38.507Z,19.25
2017-09-18T04:19:06.036Z,19.52
2017-09-18T04:21:33.578Z,18.00
2017-09-18T04:24:01.125Z,18.37
2017-09-18T04:26:28.652Z,18.23
2017-09-18T04:28:56.971Z,17.23
2017-09-18T04:31:24.480Z,17.50
2017-09-18T04:33:52.003Z,16.92
2017-09-18T04:36:19.568Z,17.02
2017-09-18T04:38:47.095Z,17.17
2017-09-18T04:41:14.624Z,18.02
2017-09-18T04:43:42.948Z,18.95
2017-09-18T04:46:10.465Z,16.73
2017-09-18T04:48:38.752Z,17.35
2017-09-18T04:51:07.064Z,17.30
2017-09-18T04:53:34.590Z,15.30
2017-09-18T04:56:02.135Z,18.23
2017-09-18T04:58:30.453Z,16.73
2017-09-18T05:00:58.005Z,16.42
2017-09-18T05:03:25.521Z,17.08
2017-09-18T05:05:53.059Z,16.67
2017-09-18T05:08:20.582Z,17.12
2017-09-18T05:10:48.093Z,16.85
2017-09-18T05:13:15.628Z,16.33
2017-09-18T05:15:43.144Z,18.02
2017-09-18T05:18:10.664Z,18.87
2017-09-18T05:20:38.209Z,17.23
2017-09-18T05:23:05.735Z,16.62
2017-09-18T05:25:33.265Z,15.38
2017-09-18T05:28:01.566Z,16.83
2017-09-18T05:30:30.004Z,18.10
2017-09-18T05:32:57.544Z,17.77
2017-09-18T05:35:25.104Z,15.40
2017-09-18T05:37:52.622Z,16.83
2017-09-18T05:40:20.134Z,17.90
2017-09-18T05:42:47.674Z,15.10
2017-09-18T05:45:15.207Z,16.10
2017-09-18T05:47:42.736Z,16.25
2017-09-18T05:50:11.064Z,16.77
2017-09-18T05:52:39.033Z,15.35
2017-09-18T05:55:06.564Z,15.65
2017-09-18T05:57:34.069Z,15.30
2017-09-18T06:00:01.618Z,15.48
2017-09-18T06:02:29.126Z,15.23
2017-09-18T06:04:56.665Z,16.23
2017-09-18T06:07:25.887Z,15.93
2017-09-18T06:09:53.412Z,16.95
2017-09-18T06:12:20.965Z,16.87
2017-09-18T06:14:49.984Z,17.08
2017-09-18T06:17:18.269Z,17.20
2017-09-18T06:19:46.562Z,17.60
2017-09-18T06:22:14.113Z,16.75
2017-09-18T06:24:41.652Z,16.67
2017-09-18T06:27:09.949Z,17.90
2017-09-18T06:29:37.671Z,16.50
2017-09-18T06:32:05.185Z,15.73
2017-09-18T06:34:32.762Z,15.48
2017-09-18T06:37:00.321Z,16.65
2017-09-18T06:39:27.848Z,15.70
2017-09-18T06:41:55.402Z,15.40
2017-09-18T06:44:23.688Z,16.02
2017-09-18T06:46:51.205Z,19.70
2017-09-18T06:49:18.759Z,17.77
2017-09-18T06:51:46.305Z,16.85
2017-09-18T06:54:13.826Z,16.55
2017-09-18T06:56:41.345Z,17.20
2017-09-18T06:59:08.907Z,15.68
2017-09-18T07:01:36.450Z,15.85
2017-09-18T07:04:03.988Z,14.65
2017-09-18T07:06:31.542Z,13.45
2017-09-18T07:08:59.163Z,13.62
2017-09-18T07:11:27.459Z,13.27
2017-09-18T07:13:54.988Z,11.83
2017-09-18T07:16:22.544Z,13.00
2017-09-18T07:18:50.065Z,13.60
2017-09-18T07:21:17.594Z,13.75
2017-09-18T07:23:45.149Z,13.55
2017-09-18T07:26:12.672Z,13.65
2017-09-18T07:28:40.184Z,13.48
2017-09-18T07:31:07.729Z,13.95
2017-09-18T07:33:36.016Z,14.17
2017-09-18T07:36:03.552Z,14.68
2017-09-18T07:38:31.124Z,15.70
2017-09-18T07:40:58.651Z,13.00
2017-09-18T07:43:26.171Z,12.10
2017-09-18T07:45:53.729Z,12.27
2017-09-18T07:48:21.237Z,12.37
2017-09-18T07:50:48.760Z,12.10
2017-09-18T07:53:16.305Z,11.27
2017-09-18T07:55:43.814Z,11.40
2017-09-18T07:58:11.334Z,10.07
2017-09-18T08:00:38.857Z,10.57
2017-09-18T08:03:06.361Z,10.87
2017-09-18T08:05:33.862Z,9.53
2017-09-18T08:08:02.384Z,11.27
2017-09-18T08:10:29.888Z,10.27
2017-09-18T08:12:57.419Z,10.30
2017-09-18T08:15:24.941Z,9.97
2017-09-18T08:17:52.449Z,10.47
2017-09-18T08:20:20.119Z,10.30
2017-09-18T08:22:47.632Z,9.03
2017-09-18T08:25:15.167Z,10.30
2017-09-18T08:27:42.699Z,9.90
2017-09-18T08:30:10.232Z,8.57
2017-09-18T08:32:37.738Z,9.60
2017-09-18T08:35:06.036Z,9.60
2017-09-18T08:37:33.541Z,9.87
2017-09-18T08:40:01.061Z,10.70
2017-09-18T08:42:28.607Z,8.83
2017-09-18T08:44:56.127Z,9.33
2017-09-18T08:47:23.638Z,9.57
2017-09-18T08:49:51.200Z,9.80
2017-09-18T08:52:18.731Z,9.17
2017-09-18T08:54:46.236Z,10.17
2017-09-18T08:57:13.778Z,9.80
2017-09-18T08:59:41.294Z,8.80
2017-09-18T09:02:09.588Z,9.90
2017-09-18T09:04:37.117Z,8.57
2017-09-18T09:07:04.604Z,8.97
2017-09-18T09:09:32.193Z,9.83
2017-09-18T09:11:59.737Z,9.40
2017-09-18T09:14:27.251Z,9.70
2017-09-18T09:16:54.761Z,9.43
2017-09-18T09:19:22.319Z,10.27
2017-09-18T09:21:49.893Z,9.70
2017-09-18T09:24:17.430Z,10.53
2017-09-18T09:26:44.977Z,8.57
2017-09-18T09:29:12.504Z,8.67
2017-09-18T09:31:40.005Z,8.17
2017-09-18T09:34:07.520Z,7.00
2017-09-18T09:36:35.025Z,7.93
2017-09-18T09:39:02.548Z,8.70
2017-09-18T09:41:30.853Z,7.43
2017-09-18T09:43:58.375Z,7.83
2017-09-18T09:46:25.880Z,8.80
2017-09-18T09:48:53.419Z,8.60
2017-09-18T09:51:21.691Z,9.63
2017-09-18T09:53:49.965Z,7.60
2017-09-18T09:56:18.262Z,8.20
2017-09-18T09:58:45.778Z,9.23
2017-09-18T10:01:13.312Z,8.50
2017-09-18T10:03:40.856Z,8.47
2017-09-18T10:06:08.365Z,8.60
2017-09-18T10:08:35.876Z,8.63
2017-09-18T10:11:03.457Z,8.33
2017-09-18T10:13:30.961Z,8.93
2017-09-18T10:15:59.239Z,8.03
2017-09-18T10:18:26.764Z,8.87
2017-09-18T10:20:54.253Z,7.93
2017-09-18T10:23:22.531Z,8.10
2017-09-18T10:25:50.831Z,9.33
2017-09-18T10:28:18.325Z,8.30
2017-09-18T10:30:45.833Z,6.73
2017-09-18T10:33:13.378Z,8.23
2017-09-18T10:35:41.668Z,8.83
2017-09-18T10:38:09.169Z,7.47
2017-09-18T10:40:36.821Z,5.80
2017-09-18T10:43:04.340Z,6.00
2017-09-18T10:45:31.837Z,6.20
2017-09-18T10:47:59.387Z,5.60
2017-09-18T10:50:26.904Z,5.40
2017-09-18T10:52:55.188Z,6.53
2017-09-18T10:55:23.786Z,5.27
2017-09-18T10:57:51.295Z,5.53
2017-09-18T11:00:18.821Z,5.10
2017-09-18T11:02:46.357Z,6.00
2017-09-18T11:05:13.861Z,6.33
2017-09-18T11:07:44.226Z,6.37
2017-09-18T11:10:11.824Z,6.60
2017-09-18T11:12:39.317Z,6.73
2017-09-18T11:15:06.835Z,8.40
2017-09-18T11:17:34.360Z,8.53
2017-09-18T11:20:02.641Z,5.60
2017-09-18T11:22:30.917Z,4.30
2017-09-18T11:25:00.182Z,4.27
2017-09-18T11:27:27.693Z,5.47
2017-09-18T11:29:55.215Z,4.80
2017-09-18T11:32:22.773Z,5.90
2017-09-18T11:34:50.304Z,5.87
2017-09-18T11:37:17.851Z,7.17
2017-09-18T11:39:45.373Z,4.93
2017-09-18T11:42:13.661Z,5.23
2017-09-18T11:44:41.192Z,3.70
2017-09-18T11:47:08.750Z,3.92
2017-09-18T11:49:36.267Z,4.40
2017-09-18T11:52:03.808Z,4.43
2017-09-18T11:54:31.365Z,3.97
2017-09-18T11:56:58.873Z,4.15
2017-09-18T11:59:26.407Z,4.18
2017-09-18T12:01:53.942Z,4.40
2017-09-18T12:04:21.469Z,4.33
2017-09-18T12:06:48.979Z,5.67
2017-09-18T12:09:16.511Z,5.20
2017-09-18T12:11:44.021Z,7.20
2017-09-18T12:14:11.536Z,6.23
2017-09-18T12:16:39.088Z,5.60
2017-09-18T12:19:06.596Z,6.40
2017-09-18T12:21:34.108Z,4.13
2017-09-18T12:24:01.670Z,3.60
2017-09-18T12:26:29.191Z,4.27
2017-09-18T12:28:56.732Z,3.77
2017-09-18T12:31:24.276Z,3.07
2017-09-18T12:33:51.793Z,2.73
2017-09-18T12:36:20.087Z,2.97
2017-09-18T12:38:47.636Z,2.93
2017-09-18T12:41:15.149Z,2.77
2017-09-18T12:43:42.685Z,2.40
2017-09-18T12:46:10.201Z,3.00
2017-09-18T12:48:38.486Z,3.20
2017-09-18T12:51:06.803Z,2.30
2017-09-18T12:53:34.301Z,2.50
2017-09-18T12:56:01.797Z,3.10
2017-09-18T12:58:29.343Z,2.10
2017-09-18T13:00:57.148Z,2.40
2017-09-18T13:03:24.671Z,2.00
2017-09-18T13:05:52.381Z,3.23
2017-09-18T13:08:19.895Z,1.83
2017-09-18T13:10:47.421Z,2.00
2017-09-18T13:13:14.955Z,2.20
2017-09-18T13:15:42.456Z,1.60
2017-09-18T13:18:10.009Z,1.60
2017-09-18T13:20:38.299Z,1.50
2017-09-18T13:23:05.832Z,1.80
2017-09-18T13:25:33.372Z,1.70
2017-09-18T13:28:01.107Z,1.60
2017-09-18T13:30:28.622Z,1.80
2017-09-18T13:32:56.929Z,1.53
2017-09-18T13:35:24.425Z,2.13
2017-09-18T13:37:51.943Z,2.00
2017-09-18T13:40:19.468Z,2.00
2017-09-18T13:42:46.957Z,2.33
2017-09-18T13:45:14.500Z,2.07
2017-09-18T13:47:42.818Z,2.00
2017-09-18T13:50:10.330Z,2.33
2017-09-18T13:52:38.605Z,2.10
2017-09-18T13:55:06.137Z,2.10
2017-09-18T13:57:33.652Z,1.80
2017-09-18T14:00:01.168Z,1.90
2017-09-18T14:02:28.703Z,1.90
2017-09-18T14:04:56.211Z,2.43
2017-09-18T14:07:24.496Z,2.30
2017-09-18T14:09:52.893Z,2.00
2017-09-18T14:12:20.389Z,2.30
2017-09-18T14:14:47.919Z,2.70
2017-09-18T14:17:15.457Z,2.47
2017-09-18T14:19:42.965Z,2.80
2017-09-18T14:22:10.457Z,2.47
2017-09-18T14:24:38.780Z,2.87
2017-09-18T14:27:06.271Z,2.63
2017-09-18T14:29:33.789Z,2.70
2017-09-18T14:32:01.473Z,2.60
2017-09-18T14:34:29.004Z,3.20
2017-09-18T14:36:56.532Z,3.37
2017-09-18T14:39:24.906Z,3.07
2017-09-18T14:41:53.196Z,2.50
2017-09-18T14:44:20.692Z,2.47
2017-09-18T14:46:48.244Z,2.90
2017-09-18T14:49:15.745Z,2.33
2017-09-18T14:51:43.263Z,2.00
2017-09-18T14:54:10.805Z,1.90
2017-09-18T14:56:38.322Z,1.90
2017-09-18T14:59:05.840Z,1.97
2017-09-18T15:01:33.358Z,1.97
2017-09-18T15:04:01.633Z,1.80
2017-09-18T15:06:29.948Z,2.00
2017-09-18T15:08:57.481Z,2.20
2017-09-18T15:11:25.757Z,1.70
2017-09-18T15:13:53.280Z,2.10
2017-09-18T15:16:21.045Z,1.70
2017-09-18T15:18:48.578Z,2.20
2017-09-18T15:21:16.110Z,1.90
2017-09-18T15:23:43.651Z,1.97
2017-09-18T15:26:11.933Z,2.10
2017-09-18T15:28:40.202Z,2.30
2017-09-18T15:31:08.476Z,2.27
2017-09-18T15:33:36.254Z,2.40
2017-09-18T15:36:03.796Z,2.07
2017-09-18T15:38:32.098Z,2.00
2017-09-18T15:40:59.661Z,2.10
2017-09-18T15:43:27.342Z,2.50
2017-09-18T15:45:54.875Z,2.20
2017-09-18T15:48:22.406Z,2.30
2017-09-18T15:50:50.700Z,2.27
2017-09-18T15:53:19.250Z,2.47
2017-09-18T15:55:48.026Z,2.73
2017-09-18T15:58:15.574Z,2.50
2017-09-18T16:00:43.334Z,3.10
2017-09-18T16:03:10.873Z,2.43
2017-09-18T16:05:38.497Z,2.37
2017-09-18T16:08:06.853Z,2.27
2017-09-18T16:10:34.510Z,2.40
2017-09-18T16:13:02.137Z,2.73
2017-09-18T16:15:29.780Z,2.53
2017-09-18T16:17:57.482Z,2.60
2017-09-18T16:20:25.072Z,2.87
2017-09-18T16:22:52.637Z,2.00
2017-09-18T16:25:20.294Z,2.43
2017-09-18T16:27:48.741Z,2.70
2017-09-18T16:30:16.524Z,2.50
2017-09-18T16:32:45.090Z,3.13
2017-09-18T16:35:12.685Z,2.63
2017-09-18T16:37:40.268Z,2.40
2017-09-18T16:40:07.836Z,2.83
2017-09-18T16:42:35.389Z,2.60
2017-09-18T16:45:03.827Z,3.60
2017-09-18T16:47:31.413Z,3.60
2017-09-18T16:49:58.989Z,3.20
2017-09-18T16:52:27.286Z,3.77
2017-09-18T16:54:54.971Z,3.53
2017-09-18T16:57:22.539Z,3.40
2017-09-18T16:59:50.092Z,3.30
2017-09-18T17:02:17.642Z,2.80
2017-09-18T17:04:45.172Z,3.17
2017-09-18T17:07:12.707Z,3.27
2017-09-18T17:09:40.289Z,2.63
2017-09-18T17:12:08.579Z,3.03
2017-09-18T17:14:36.102Z,3.30
2017-09-18T17:17:03.699Z,3.00
2017-09-18T17:19:31.308Z,2.63
2017-09-18T17:21:58.898Z,3.17
2017-09-18T17:24:27.264Z,3.33
2017-09-18T17:26:54.943Z,2.87
2017-09-18T17:29:22.756Z,3.30
2017-09-18T17:31:50.540Z,3.10
2017-09-18T17:34:18.210Z,2.93
2017-09-18T17:36:46.555Z,3.20
2017-09-18T17:39:14.348Z,3.27
2017-09-18T17:41:43.417Z,3.83
2017-09-18T17:44:11.338Z,3.17
2017-09-18T17:46:39.229Z,3.50
2017-09-18T17:49:06.899Z,3.10
2017-09-18T17:51:35.359Z,2.90
2017-09-18T17:54:04.137Z,2.97
2017-09-18T17:56:34.375Z,3.30
2017-09-18T17:59:01.963Z,4.10
2017-09-18T18:01:29.629Z,2.90
2017-09-18T18:03:57.249Z,3.50
2017-09-18T18:06:25.874Z,3.33
2017-09-18T18:08:55.072Z,3.17
2017-09-18T18:11:22.831Z,3.73
2017-09-18T18:13:50.510Z,3.67
2017-09-18T18:16:18.466Z,3.20
2017-09-18T18:18:46.208Z,3.40
2017-09-18T18:21:13.935Z,2.83
2017-09-18T18:23:43.672Z,4.00
2017-09-18T18:26:11.528Z,4.07
2017-09-18T18:28:39.427Z,3.40
2017-09-18T18:31:07.343Z,3.50
2017-09-18T18:33:34.998Z,3.60
2017-09-18T18:36:02.597Z,3.30
2017-09-18T18:38:30.468Z,3.50
2017-09-18T18:40:58.240Z,3.00
2017-09-18T18:43:26.101Z,3.80
2017-09-18T18:45:53.904Z,4.50
2017-09-18T18:48:21.639Z,4.03
2017-09-18T18:50:49.541Z,4.57
2017-09-18T18:53:17.232Z,3.87
2017-09-18T18:55:46.769Z,4.57
2017-09-18T18:58:14.603Z,3.97
2017-09-18T19:03:17.677Z,4.60
2017-09-18T19:05:49.188Z,4.60
2017-09-18T19:08:19.272Z,4.43
2017-09-18T19:10:48.869Z,4.43
2017-09-18T19:13:17.370Z,3.87
2017-09-18T19:15:45.781Z,3.90
2017-09-18T19:18:13.469Z,3.93
2017-09-18T19:20:41.135Z,5.43
2017-09-18T19:23:08.728Z,4.30
2017-09-18T19:25:36.355Z,5.53
2017-09-18T19:28:03.948Z,4.73
2017-09-18T19:30:31.581Z,4.37
2017-09-18T19:32:59.425Z,5.00
2017-09-18T19:35:27.107Z,4.33
2017-09-18T19:37:54.879Z,4.97
2017-09-18T19:40:25.900Z,3.93
2017-09-18T19:42:54.311Z,4.30
2017-09-18T19:45:21.905Z,4.27
2017-09-18T19:47:50.244Z,4.63
2017-09-18T19:50:17.854Z,4.53
2017-09-18T19:52:47.702Z,4.17
2017-09-18T19:55:15.231Z,5.40
2017-09-18T19:57:42.851Z,4.83
2017-09-18T20:00:10.495Z,4.77
2017-09-18T20:02:38.978Z,5.57
2017-09-18T20:05:06.536Z,5.13
2017-09-18T20:07:34.066Z,5.33
2017-09-18T20:10:01.581Z,4.80
2017-09-18T20:12:30.338Z,5.23
2017-09-18T20:14:59.570Z,5.63
2017-09-18T20:17:27.945Z,4.60
2017-09-18T20:19:55.453Z,4.83
2017-09-18T20:22:22.965Z,5.40
2017-09-18T20:24:50.769Z,5.10
2017-09-18T20:27:19.088Z,6.13
2017-09-18T20:29:46.625Z,5.67
2017-09-18T20:32:14.177Z,6.20
2017-09-18T20:34:41.703Z,5.13
2017-09-18T20:37:09.990Z,5.67
2017-09-18T20:39:38.389Z,5.80
2017-09-18T20:42:05.946Z,5.80
2017-09-18T20:44:33.819Z,6.30
2017-09-18T20:47:01.369Z,6.20
2017-09-18T20:49:28.887Z,5.93
2017-09-18T20:51:57.246Z,6.33
2017-09-18T20:54:24.913Z,7.13
2017-09-18T20:56:52.420Z,6.63
2017-09-18T20:59:19.978Z,6.63
2017-09-18T21:01:47.536Z,7.10
2017-09-18T21:04:15.064Z,6.93
2017-09-18T21:06:43.377Z,6.50
2017-09-18T21:09:11.113Z,7.35
2017-09-18T21:11:39.448Z,6.90
2017-09-18T21:14:06.968Z,6.93
2017-09-18T21:16:35.281Z,6.60
2017-09-18T21:19:02.798Z,5.83
2017-09-18T21:21:30.323Z,6.07
2017-09-18T21:23:57.885Z,6.30
2017-09-18T21:26:25.393Z,6.80
2017-09-18T21:28:52.921Z,7.67
2017-09-18T21:31:21.285Z,6.23
2017-09-18T21:33:48.823Z,7.77
2017-09-18T21:36:17.923Z,6.27
2017-09-18T21:38:45.425Z,6.70
2017-09-18T21:41:13.724Z,6.23
2017-09-18T21:43:41.285Z,6.87
2017-09-18T21:46:08.825Z,6.40
2017-09-18T21:48:36.357Z,6.20
2017-09-18T21:51:03.889Z,5.87
2017-09-18T21:53:31.392Z,7.30
2017-09-18T21:55:59.729Z,6.50
2017-09-18T21:58:27.428Z,7.25
2017-09-18T22:00:55.744Z,5.93
2017-09-18T22:03:23.257Z,6.47
2017-09-18T22:05:51.745Z,6.53
2017-09-18T22:08:19.979Z,5.97
2017-09-18T22:10:49.808Z,5.82
2017-09-18T22:13:17.380Z,6.32
2017-09-18T22:15:46.015Z,6.22
2017-09-18T22:18:14.204Z,5.70
2017-09-18T22:20:42.587Z,5.50
2017-09-18T22:23:10.112Z,5.33
2017-09-18T22:25:37.656Z,5.43
2017-09-18T22:28:05.391Z,5.03
2017-09-18T22:30:32.926Z,4.70
2017-09-18T22:33:00.460Z,4.70
2017-09-18T22:35:28.173Z,4.00
2017-09-18T22:37:55.706Z,3.67
2017-09-18T22:40:23.254Z,4.47
2017-09-18T22:42:51.077Z,4.12
2017-09-18T22:45:18.611Z,3.97
2017-09-18T22:47:46.144Z,4.00
2017-09-18T22:50:13.913Z,3.80
2017-09-18T22:52:41.454Z,3.53
2017-09-18T22:55:08.978Z,2.93
2017-09-18T22:57:37.397Z,3.17
2017-09-18T23:00:04.967Z,3.27
2017-09-18T23:02:32.541Z,2.93
2017-09-18T23:05:00.073Z,3.10
2017-09-18T23:07:27.596Z,3.10
2017-09-18T23:09:55.133Z,3.50
2017-09-18T23:12:23.450Z,3.00
2017-09-18T23:14:52.510Z,3.73
2017-09-18T23:17:20.062Z,3.77
2017-09-18T23:19:48.954Z,3.90
2017-09-18T23:22:16.450Z,4.82
2017-09-18T23:24:43.993Z,4.20
2017-09-18T23:27:11.720Z,4.37
2017-09-18T23:29:39.248Z,2.90
2017-09-18T23:32:06.802Z,3.17
2017-09-18T23:34:34.332Z,4.18
2017-09-18T23:37:01.864Z,4.30
2017-09-18T23:39:29.424Z,3.90
2017-09-18T23:41:56.953Z,4.43
2017-09-18T23:44:25.395Z,3.62
2017-09-18T23:46:53.273Z,3.60
2017-09-18T23:49:21.561Z,3.67
2017-09-18T23:51:49.185Z,4.00
2017-09-18T23:54:16.732Z,4.43
2017-09-18T23:56:44.259Z,5.30
2017-09-18T23:59:11.816Z,5.53
